Antelope, California
Current Conditions -  °F | °C
As of 12:15 AM on Monday 26 Jan 2015 (Local Time) from KMCC Reporting Station
Haze Haze  
Wind Chill: 38°   Ceiling: Unl
Heat Index: 41°   Visibility: 4mi
Dew Point: 41°   Wind: 5mph
Humidity: 100%   Direction: 140°SE
Pressure: 30.11"   Gusts: NA
Location:  38.72°N, 121.37°W
Report Text: KMCC 260815Z AUTO 14004KT 4SM BR CLR 05/05 A3011 RMK AO2
Loading
Personal Weather Stations






























Interactive Weather Map New forecast layout! Learn more

10-Day Weather Forecast

Advertisements
Track Severe Weather on mobile